createdAt,value
2022-08-16T00:01:24.464Z,19.10
2022-08-16T00:03:53.133Z,19.11
2022-08-16T00:06:21.510Z,19.16
2022-08-16T00:08:50.477Z,19.03
2022-08-16T00:11:22.363Z,19.08
2022-08-16T00:13:54.222Z,19.00
2022-08-16T00:17:00.617Z,19.31
2022-08-16T00:21:42.554Z,19.12
2022-08-16T00:24:12.331Z,19.11
2022-08-16T00:26:44.089Z,19.14
2022-08-16T00:29:17.028Z,19.01
2022-08-16T00:32:00.705Z,18.96
2022-08-16T00:34:43.543Z,18.93
2022-08-16T00:37:24.436Z,18.94
2022-08-16T00:39:58.582Z,19.02
2022-08-16T00:42:31.799Z,19.00
2022-08-16T00:45:10.882Z,18.86
2022-08-16T00:47:49.597Z,18.84
2022-08-16T00:50:20.381Z,18.84
2022-08-16T00:52:51.450Z,18.75
2022-08-16T00:55:21.944Z,18.73
2022-08-16T00:57:59.098Z,18.68
2022-08-16T01:00:31.948Z,18.66
2022-08-16T01:03:04.466Z,18.65
2022-08-16T01:05:34.246Z,18.63
2022-08-16T01:08:35.319Z,18.64
2022-08-16T01:10:51.314Z,18.73
2022-08-16T01:13:22.655Z,18.75
2022-08-16T01:15:57.276Z,18.69
2022-08-16T01:18:40.013Z,18.63
2022-08-16T01:21:22.526Z,18.70
2022-08-16T01:24:06.726Z,18.62
2022-08-16T01:26:58.643Z,18.61
2022-08-16T01:29:57.216Z,18.58
2022-08-16T01:32:31.590Z,18.62
2022-08-16T01:35:03.308Z,18.48
2022-08-16T01:37:38.902Z,18.56
2022-08-16T01:40:13.566Z,18.41
2022-08-16T01:42:44.252Z,18.45
2022-08-16T01:45:16.796Z,18.46
2022-08-16T01:47:50.986Z,18.34
2022-08-16T01:50:41.966Z,18.36
2022-08-16T01:53:11.261Z,18.31
2022-08-16T01:55:42.846Z,18.32
2022-08-16T01:58:23.664Z,18.32
2022-08-16T02:00:51.790Z,18.33
2022-08-16T02:03:24.176Z,18.36
2022-08-16T02:05:52.575Z,18.25
2022-08-16T02:08:33.480Z,18.17
2022-08-16T02:13:33.172Z,18.19
2022-08-16T02:16:01.432Z,18.15
2022-08-16T02:20:58.303Z,18.16
2022-08-16T02:23:29.652Z,18.11
2022-08-16T02:25:57.681Z,18.16
2022-08-16T02:28:29.235Z,18.10
2022-08-16T02:31:00.541Z,17.99
2022-08-16T02:33:43.432Z,17.94
2022-08-16T02:36:14.571Z,17.90
2022-08-16T02:41:29.691Z,17.85
2022-08-16T02:44:00.179Z,17.80
2022-08-16T02:46:33.317Z,17.83
2022-08-16T02:49:02.321Z,17.79
2022-08-16T02:51:31.374Z,17.71
2022-08-16T02:53:59.800Z,17.82
2022-08-16T02:56:32.296Z,17.67
2022-08-16T02:59:01.736Z,17.68
2022-08-16T03:01:37.086Z,17.66
2022-08-16T03:04:46.383Z,17.58
2022-08-16T03:14:25.004Z,17.57
2022-08-16T03:16:59.375Z,17.50
2022-08-16T03:19:42.218Z,17.51
2022-08-16T03:22:19.486Z,17.46
2022-08-16T03:24:57.603Z,17.47
2022-08-16T03:27:30.820Z,17.48
2022-08-16T03:30:02.615Z,17.44
2022-08-16T03:32:45.053Z,17.39
2022-08-16T03:35:17.806Z,17.25
2022-08-16T03:38:01.573Z,17.20
2022-08-16T03:40:33.219Z,17.04
2022-08-16T03:43:19.994Z,17.12
2022-08-16T03:45:52.643Z,17.17
2022-08-16T03:48:36.251Z,17.05
2022-08-16T03:53:37.790Z,17.01
2022-08-16T03:56:19.548Z,17.10
2022-08-16T03:58:50.890Z,17.09
2022-08-16T04:01:22.159Z,17.01
2022-08-16T04:03:50.217Z,16.83
2022-08-16T04:06:18.294Z,16.74
2022-08-16T04:08:46.286Z,16.67
2022-08-16T04:11:16.515Z,16.69
2022-08-16T04:14:00.745Z,16.71
2022-08-16T04:16:34.695Z,16.74
2022-08-16T04:19:04.343Z,16.75
2022-08-16T04:24:03.141Z,16.72
2022-08-16T04:26:32.089Z,16.79
2022-08-16T04:29:16.395Z,16.73
2022-08-16T04:31:56.726Z,16.70
2022-08-16T04:34:28.189Z,16.77
2022-08-16T04:36:56.642Z,16.85
2022-08-16T04:39:37.106Z,16.90
2022-08-16T04:42:13.562Z,16.76
2022-08-16T04:44:54.537Z,16.75
2022-08-16T04:47:31.299Z,16.66
2022-08-16T04:50:01.576Z,16.64
2022-08-16T04:52:33.990Z,16.68
2022-08-16T04:55:06.215Z,16.65
2022-08-16T04:57:34.494Z,16.67
2022-08-16T05:00:32.238Z,16.88
2022-08-16T05:02:54.874Z,16.77
2022-08-16T05:05:24.618Z,16.82
2022-08-16T05:07:59.715Z,16.86
2022-08-16T05:10:29.565Z,16.89
2022-08-16T05:12:58.400Z,16.85
2022-08-16T05:15:26.636Z,16.90
2022-08-16T05:17:59.070Z,17.01
2022-08-16T05:20:39.535Z,17.09
2022-08-16T05:23:15.051Z,17.19
2022-08-16T05:25:48.182Z,17.12
2022-08-16T05:28:17.256Z,17.07
2022-08-16T05:30:45.582Z,17.18
2022-08-16T05:33:21.155Z,17.16
2022-08-16T05:35:55.168Z,17.30
2022-08-16T05:38:32.790Z,17.30
2022-08-16T05:41:09.498Z,17.27
2022-08-16T05:46:28.803Z,17.55
2022-08-16T05:51:38.781Z,17.64
2022-08-16T05:54:11.691Z,17.73
2022-08-16T05:56:43.339Z,17.89
2022-08-16T05:59:11.234Z,17.78
2022-08-16T06:01:39.969Z,17.83
2022-08-16T06:04:13.557Z,18.00
2022-08-16T06:09:42.648Z,17.89
2022-08-16T06:12:12.808Z,18.14
2022-08-16T06:14:58.769Z,18.00
2022-08-16T06:20:14.665Z,18.35
2022-08-16T06:22:45.192Z,18.47
2022-08-16T06:25:15.895Z,18.61
2022-08-16T06:27:57.674Z,18.58
2022-08-16T06:30:28.704Z,18.83
2022-08-16T06:32:56.832Z,18.93
2022-08-16T06:35:26.580Z,18.99
2022-08-16T06:38:22.239Z,19.10
2022-08-16T06:40:57.552Z,19.34
2022-08-16T06:43:27.394Z,19.44
2022-08-16T06:45:56.882Z,19.51
2022-08-16T06:48:32.921Z,19.61
2022-08-16T06:51:03.499Z,19.74
2022-08-16T06:53:33.501Z,19.84
2022-08-16T06:56:14.918Z,20.01
2022-08-16T07:01:43.317Z,20.42
2022-08-16T07:04:10.358Z,20.48
2022-08-16T07:06:43.048Z,20.68
2022-08-16T07:14:24.222Z,20.97
2022-08-16T07:16:55.296Z,21.08
2022-08-16T07:20:01.587Z,21.09
2022-08-16T07:22:52.456Z,21.20
2022-08-16T07:25:05.401Z,21.61
2022-08-16T07:27:33.897Z,21.85
2022-08-16T07:30:38.827Z,22.19
2022-08-16T07:32:56.852Z,22.33
2022-08-16T07:35:25.799Z,22.42
2022-08-16T07:37:55.255Z,22.66
2022-08-16T07:40:49.208Z,22.76
2022-08-16T07:43:11.224Z,22.94
2022-08-16T07:45:39.217Z,23.15
2022-08-16T07:48:12.397Z,23.01
2022-08-16T07:50:55.740Z,23.93
2022-08-16T07:53:29.593Z,23.70
2022-08-16T07:56:00.325Z,24.50
2022-08-16T07:58:35.128Z,24.56
2022-08-16T08:01:10.377Z,24.86
2022-08-16T08:03:47.586Z,24.99
2022-08-16T08:06:16.868Z,24.83
2022-08-16T08:11:18.437Z,25.74
2022-08-16T08:13:46.285Z,26.03
2022-08-16T08:16:18.494Z,25.77
2022-08-16T08:21:26.361Z,24.76
2022-08-16T08:23:57.737Z,24.97
2022-08-16T08:26:26.096Z,24.71
2022-08-16T08:31:29.228Z,24.89
2022-08-16T08:33:58.570Z,25.19
2022-08-16T08:36:33.531Z,25.56
2022-08-16T08:39:03.920Z,25.87
2022-08-16T08:41:42.318Z,26.01
2022-08-16T08:44:29.060Z,25.92
2022-08-16T08:47:01.626Z,25.14
2022-08-16T08:49:46.558Z,25.65
2022-08-16T08:52:34.297Z,25.52
2022-08-16T08:55:11.133Z,27.05
2022-08-16T08:57:40.938Z,26.99
2022-08-16T09:00:13.078Z,26.40
2022-08-16T09:02:44.365Z,26.29
2022-08-16T09:05:15.274Z,25.65
2022-08-16T09:08:00.329Z,25.24
2022-08-16T09:10:31.021Z,24.72
2022-08-16T09:12:58.946Z,23.99
2022-08-16T09:15:33.266Z,24.05
2022-08-16T09:18:24.745Z,24.14
2022-08-16T09:21:00.166Z,24.34
2022-08-16T09:23:31.163Z,24.87
2022-08-16T09:29:14.836Z,25.18
2022-08-16T09:31:44.079Z,25.34
2022-08-16T09:34:18.689Z,25.22
2022-08-16T09:36:47.742Z,24.96
2022-08-16T09:39:16.571Z,25.16
2022-08-16T09:41:53.359Z,25.63
2022-08-16T09:45:10.781Z,25.54
2022-08-16T09:47:11.892Z,26.10
2022-08-16T09:49:40.832Z,26.21
2022-08-16T09:52:10.334Z,28.05
2022-08-16T09:54:44.276Z,28.57
2022-08-16T09:59:42.327Z,29.24
2022-08-16T10:04:55.139Z,28.53
2022-08-16T10:07:23.542Z,27.96
2022-08-16T10:09:54.864Z,28.34
2022-08-16T10:12:44.027Z,28.01
2022-08-16T10:15:16.014Z,28.88
2022-08-16T10:23:06.156Z,30.91
2022-08-16T10:27:19.265Z,31.14
2022-08-16T10:28:29.992Z,30.52
2022-08-16T10:36:03.834Z,30.24
2022-08-16T10:41:05.116Z,28.55
2022-08-16T10:46:33.664Z,29.70
2022-08-16T10:48:53.929Z,30.22
2022-08-16T10:51:33.332Z,29.29
2022-08-16T10:56:52.498Z,28.76
2022-08-16T10:59:46.037Z,28.77
2022-08-16T11:03:37.516Z,28.28
2022-08-16T11:05:12.230Z,27.91
2022-08-16T11:19:04.128Z,26.30
2022-08-16T11:21:37.615Z,26.94
2022-08-16T11:27:24.058Z,29.73
2022-08-16T11:32:31.907Z,30.35
2022-08-16T11:35:14.990Z,31.53
2022-08-16T11:40:38.882Z,32.37
2022-08-16T11:43:10.183Z,30.35
2022-08-16T11:48:08.503Z,30.56
2022-08-16T11:50:36.530Z,30.89
2022-08-16T12:00:50.548Z,29.70
2022-08-16T12:03:34.649Z,29.14
2022-08-16T12:06:11.053Z,28.95
2022-08-16T12:08:53.292Z,28.67
2022-08-16T12:13:51.839Z,28.29
2022-08-16T12:16:20.744Z,28.31
2022-08-16T12:18:50.441Z,29.77
2022-08-16T12:21:18.402Z,29.10
2022-08-16T12:26:15.508Z,31.82
2022-08-16T12:28:53.957Z,32.41
2022-08-16T12:43:52.308Z,33.21
2022-08-16T12:56:34.596Z,32.10
2022-08-16T12:59:07.610Z,32.07
2022-08-16T13:04:20.306Z,33.13
2022-08-16T13:06:52.285Z,34.30
2022-08-16T13:14:32.216Z,32.90
2022-08-16T13:17:02.713Z,33.77
2022-08-16T13:20:03.437Z,34.22
2022-08-16T13:35:07.179Z,32.43
2022-08-16T14:18:15.967Z,32.25
2022-08-16T14:20:39.565Z,32.86
2022-08-16T14:23:17.848Z,32.86
2022-08-16T14:30:52.303Z,34.51
2022-08-16T16:53:17.836Z,34.31
2022-08-16T16:58:36.482Z,34.45
2022-08-16T17:39:23.834Z,31.88
2022-08-16T17:41:51.819Z,31.88
2022-08-16T17:44:21.115Z,31.77
2022-08-16T17:46:51.263Z,31.96
2022-08-16T17:56:58.530Z,29.67
2022-08-16T18:01:59.254Z,29.18
2022-08-16T18:12:33.986Z,28.38
2022-08-16T18:20:31.312Z,28.01
2022-08-16T18:25:32.666Z,27.72
2022-08-16T18:28:00.599Z,27.60
2022-08-16T18:35:25.971Z,27.25
2022-08-16T18:37:54.021Z,27.12
2022-08-16T18:40:21.827Z,27.02
2022-08-16T18:43:00.176Z,26.93
2022-08-16T18:45:35.699Z,26.77
2022-08-16T18:48:05.925Z,26.66
2022-08-16T18:51:04.246Z,26.62
2022-08-16T18:53:25.218Z,26.49
2022-08-16T18:55:55.534Z,26.40
2022-08-16T19:03:26.335Z,25.79
2022-08-16T19:05:58.203Z,25.66
2022-08-16T19:10:55.327Z,25.55
2022-08-16T19:13:25.841Z,25.49
2022-08-16T19:15:58.339Z,25.38
2022-08-16T19:18:26.742Z,25.37
2022-08-16T19:20:59.265Z,25.24
2022-08-16T19:23:33.248Z,25.13
2022-08-16T19:26:03.473Z,25.04
2022-08-16T19:31:24.260Z,25.10
2022-08-16T19:33:57.421Z,25.06
2022-08-16T19:39:04.993Z,24.73
2022-08-16T19:41:34.096Z,24.65
2022-08-16T19:44:01.947Z,24.49
2022-08-16T19:46:31.972Z,24.40
2022-08-16T19:49:00.028Z,24.32
2022-08-16T19:51:27.993Z,24.28
2022-08-16T19:53:55.857Z,24.15
2022-08-16T19:56:25.899Z,24.13
2022-08-16T20:01:44.098Z,23.95
2022-08-16T20:04:13.344Z,23.83
2022-08-16T20:06:41.489Z,23.70
2022-08-16T20:09:10.341Z,23.54
2022-08-16T20:11:42.821Z,23.46
2022-08-16T20:14:10.774Z,23.43
2022-08-16T20:16:38.627Z,23.20
2022-08-16T20:19:08.064Z,23.14
2022-08-16T20:21:36.400Z,23.07
2022-08-16T20:24:31.886Z,23.04
2022-08-16T20:26:52.400Z,23.14
2022-08-16T20:29:20.580Z,23.07
2022-08-16T20:31:49.883Z,23.01
2022-08-16T20:34:19.199Z,22.93
2022-08-16T20:36:47.019Z,22.94
2022-08-16T20:39:14.989Z,22.93
2022-08-16T20:41:43.713Z,22.84
2022-08-16T20:44:12.819Z,22.82
2022-08-16T20:46:40.707Z,22.80
2022-08-16T20:51:49.727Z,22.68
2022-08-16T20:54:20.294Z,22.62
2022-08-16T20:56:48.145Z,22.51
2022-08-16T20:59:16.248Z,22.45
2022-08-16T21:01:47.016Z,22.43
2022-08-16T21:04:18.319Z,22.43
2022-08-16T21:06:53.426Z,22.35
2022-08-16T21:09:23.332Z,22.26
2022-08-16T21:11:53.504Z,22.16
2022-08-16T21:14:21.408Z,22.07
2022-08-16T21:16:49.440Z,22.04
2022-08-16T21:21:47.006Z,21.90
2022-08-16T21:24:15.559Z,21.89
2022-08-16T21:26:47.397Z,21.82
2022-08-16T21:29:24.833Z,21.82
2022-08-16T21:31:53.078Z,21.76
2022-08-16T21:34:20.932Z,21.72
2022-08-16T21:36:52.130Z,21.72
2022-08-16T21:39:20.521Z,21.68
2022-08-16T21:41:48.330Z,21.71
2022-08-16T21:44:16.132Z,21.63
2022-08-16T21:46:43.985Z,21.48
2022-08-16T21:49:11.859Z,21.37
2022-08-16T21:51:39.774Z,21.26
2022-08-16T21:54:09.314Z,21.13
2022-08-16T21:56:37.188Z,21.06
2022-08-16T21:59:10.779Z,20.97
2022-08-16T22:01:41.463Z,20.96
2022-08-16T22:04:37.230Z,20.87
2022-08-16T22:09:28.172Z,20.93
2022-08-16T22:11:56.067Z,20.93
2022-08-16T22:14:23.894Z,20.88
2022-08-16T22:16:51.831Z,20.96
2022-08-16T22:26:44.878Z,20.68
2022-08-16T22:31:43.977Z,20.42
2022-08-16T22:34:12.186Z,20.46
2022-08-16T22:39:10.072Z,20.28
2022-08-16T22:41:39.596Z,20.27
2022-08-16T22:44:09.263Z,20.31
2022-08-16T22:46:37.851Z,20.19
2022-08-16T22:49:06.698Z,20.25
2022-08-16T22:54:34.171Z,20.10
2022-08-16T22:56:52.864Z,20.17
2022-08-16T22:59:24.892Z,20.12
2022-08-16T23:01:53.599Z,19.99
2022-08-16T23:06:49.813Z,19.89
2022-08-16T23:09:17.656Z,19.89
2022-08-16T23:11:45.830Z,19.91
2022-08-16T23:14:13.663Z,19.83
2022-08-16T23:16:43.878Z,19.74
2022-08-16T23:19:13.416Z,19.69
2022-08-16T23:21:44.304Z,19.62
2022-08-16T23:26:46.736Z,19.62
2022-08-16T23:31:53.497Z,19.53
2022-08-16T23:34:21.741Z,19.49
2022-08-16T23:39:17.518Z,19.44
2022-08-16T23:44:54.963Z,19.38
2022-08-16T23:47:02.508Z,19.32
2022-08-16T23:49:55.926Z,19.25
2022-08-16T23:52:48.814Z,19.24
2022-08-16T23:55:08.164Z,19.18
2022-08-16T23:57:35.998Z,19.22
